Time;durP1;ratioP1;P1;durP2;ratioP2;P2;SDS_P1;SDS_P2;PMS_P1;PMS_P2;Temp;Humidity;BMP_temperature;BMP_pressure;BME280_temperature;BME280_humidity;BME280_pressure;Samples;Min_cycle;Max_cycle;Signal;HPM_P1;HPM_P2
2022/01/19 00:00:49;;;;;;;63.55;27.63;;;4.00;99.90;;;;;;5016043;28;20100;-81
2022/01/19 00:03:15;;;;;;;56.25;26.00;;;4.20;99.90;;;;;;5032490;28;20049;-81
2022/01/19 00:05:41;;;;;;;59.10;26.60;;;4.00;99.90;;;;;;5032269;28;20045;-80
2022/01/19 00:08:08;;;;;;;54.13;23.38;;;4.00;99.90;;;;;;4999990;28;20495;-80
2022/01/19 00:10:34;;;;;;;50.40;22.77;;;4.00;99.90;;;;;;5032461;28;20095;-81
2022/01/19 00:13:00;;;;;;;63.40;28.50;;;3.90;99.90;;;;;;5032391;28;20049;-80
2022/01/19 00:15:27;;;;;;;57.85;25.48;;;3.90;99.90;;;;;;5015708;28;20575;-81
2022/01/19 00:17:58;;;;;;;39.80;17.75;;;3.90;99.90;;;;;;5032248;28;20045;-80
2022/01/19 00:20:27;;;;;;;47.22;18.38;;;3.90;99.90;;;;;;5016258;28;20128;-80
2022/01/19 00:22:53;;;;;;;46.97;22.52;;;3.90;99.90;;;;;;5032084;28;20030;-80
2022/01/19 00:25:20;;;;;;;51.35;22.70;;;3.90;99.90;;;;;;5031959;28;20122;-79
2022/01/19 00:27:45;;;;;;;56.90;23.42;;;3.90;99.90;;;;;;5032049;28;20049;-80
2022/01/19 00:30:11;;;;;;;50.80;20.95;;;3.90;99.90;;;;;;5031790;28;20057;-80
2022/01/19 00:32:37;;;;;;;58.25;26.73;;;3.90;99.90;;;;;;5015471;28;20076;-80
2022/01/19 00:35:05;;;;;;;58.00;23.60;;;3.90;99.90;;;;;;5031664;28;20053;-81
2022/01/19 00:37:31;;;;;;;56.97;26.02;;;3.90;99.90;;;;;;5031720;28;20041;-81
2022/01/19 00:39:57;;;;;;;70.80;28.35;;;3.90;99.90;;;;;;5031712;28;20389;-80
2022/01/19 00:42:23;;;;;;;70.38;27.17;;;3.90;99.90;;;;;;5031979;28;20049;-80
2022/01/19 00:44:50;;;;;;;68.53;28.20;;;3.90;99.90;;;;;;5015552;28;20534;-80
2022/01/19 00:47:16;;;;;;;85.75;35.35;;;3.80;99.90;;;;;;5015266;28;20045;-80
2022/01/19 00:49:42;;;;;;;80.68;32.10;;;3.90;99.90;;;;;;5015227;28;20045;-80
2022/01/19 00:52:13;;;;;;;77.03;29.27;;;3.80;99.90;;;;;;5015652;28;20435;-80
2022/01/19 00:54:39;;;;;;;67.38;28.83;;;3.80;99.90;;;;;;5014894;28;20045;-81
2022/01/19 00:57:06;;;;;;;44.80;21.17;;;3.80;99.90;;;;;;4998919;28;20565;-81
2022/01/19 00:59:32;;;;;;;59.15;24.05;;;3.80;99.90;;;;;;5032096;28;20480;-81
2022/01/19 01:01:57;;;;;;;46.08;15.93;;;3.70;99.90;;;;;;4999141;28;20051;-81
2022/01/19 01:04:23;;;;;;;46.45;21.13;;;3.70;99.90;;;;;;5015269;28;20054;-79
2022/01/19 01:06:49;;;;;;;57.90;25.67;;;3.70;99.90;;;;;;5015250;28;20037;-80
2022/01/19 01:09:15;;;;;;;49.17;18.88;;;3.70;99.90;;;;;;5031425;28;20561;-81
2022/01/19 01:12:20;;;;;;;35.22;17.48;;;3.80;99.90;;;;;;5014915;28;20056;-80
2022/01/19 01:20:05;;;;;;;81.53;31.15;;;3.60;99.90;;;;;;5031423;28;20084;-80
2022/01/19 01:22:31;;;;;;;73.40;28.60;;;3.60;99.90;;;;;;5014878;28;20046;-81
2022/01/19 01:24:57;;;;;;;37.47;18.38;;;3.70;99.90;;;;;;5031226;28;20164;-80
2022/01/19 01:27:22;;;;;;;71.38;29.20;;;3.60;99.90;;;;;;5014857;28;20068;-80
2022/01/19 01:29:48;;;;;;;70.88;28.27;;;3.60;99.90;;;;;;5014797;28;20057;-80
2022/01/19 01:32:14;;;;;;;68.15;29.15;;;3.60;99.90;;;;;;4998641;28;20053;-81
2022/01/19 01:34:40;;;;;;;67.28;28.23;;;3.50;99.90;;;;;;5014763;28;20147;-81
2022/01/19 01:37:06;;;;;;;73.65;26.75;;;3.70;99.90;;;;;;5031448;28;20045;-81
2022/01/19 01:39:32;;;;;;;74.15;29.63;;;3.50;99.90;;;;;;5031064;28;20057;-80
2022/01/19 01:41:57;;;;;;;60.67;24.48;;;3.50;99.90;;;;;;5031721;28;20179;-80
2022/01/19 01:44:23;;;;;;;51.67;17.80;;;3.60;99.90;;;;;;4998291;28;20057;-81
2022/01/19 01:46:58;;;;;;;62.30;23.60;;;3.50;99.90;;;;;;5014955;28;20044;-80
2022/01/19 01:49:40;;;;;;;82.47;32.40;;;3.50;99.90;;;;;;5016087;28;20431;-81
2022/01/19 01:54:50;;;;;;;92.18;34.33;;;3.50;99.90;;;;;;5030885;28;20061;-80
2022/01/19 01:57:16;;;;;;;104.78;38.63;;;3.40;99.90;;;;;;5014877;28;20042;-80
2022/01/19 01:59:42;;;;;;;48.25;20.27;;;3.40;99.90;;;;;;5014474;28;20107;-80
2022/01/19 02:02:07;;;;;;;85.50;32.00;;;3.40;99.90;;;;;;5014757;28;20044;-81
2022/01/19 02:04:34;;;;;;;74.78;31.65;;;3.50;99.90;;;;;;5014471;28;20443;-80
2022/01/19 02:09:36;;;;;;;35.38;15.98;;;3.40;99.90;;;;;;5018948;28;20046;-81
2022/01/19 02:25:52;;;;;;;77.10;28.67;;;3.40;99.90;;;;;;5034333;28;20091;-80
2022/01/19 02:36:38;;;;;;;61.83;26.27;;;3.40;99.90;;;;;;5034072;28;20076;-80
2022/01/19 02:41:51;;;;;;;49.55;21.58;;;3.40;99.90;;;;;;5034181;28;20374;-80
2022/01/19 02:44:33;;;;;;;92.53;33.05;;;3.40;99.90;;;;;;5017702;28;20128;-80
2022/01/19 02:49:50;;;;;;;93.22;35.00;;;3.60;99.90;;;;;;5033991;28;20054;-81
2022/01/19 02:52:17;;;;;;;84.25;31.40;;;3.50;99.90;;;;;;5017342;28;20042;-80
2022/01/19 02:54:43;;;;;;;69.95;29.73;;;3.50;99.90;;;;;;5033827;28;20416;-80
2022/01/19 02:57:12;;;;;;;113.73;39.67;;;3.60;99.90;;;;;;5034055;28;20104;-80
2022/01/19 03:10:17;;;;;;;90.03;35.95;;;3.60;99.90;;;;;;5019415;28;20088;-79
2022/01/19 03:12:43;;;;;;;82.20;32.53;;;3.80;99.90;;;;;;5033495;28;20241;-80
2022/01/19 03:15:11;;;;;;;69.87;28.57;;;3.70;99.90;;;;;;5016765;28;20045;-80
2022/01/19 03:17:37;;;;;;;67.57;28.38;;;3.70;99.90;;;;;;5016728;28;20103;-79
2022/01/19 03:20:05;;;;;;;102.43;37.10;;;3.70;99.90;;;;;;5016547;28;20049;-79
2022/01/19 03:22:40;;;;;;;79.25;28.98;;;3.80;99.90;;;;;;5000677;28;20045;-81
2022/01/19 03:25:12;;;;;;;96.93;36.08;;;3.70;99.90;;;;;;5018252;28;20052;-81
2022/01/19 03:27:45;;;;;;;74.53;32.38;;;3.80;99.90;;;;;;5017569;28;20114;-80
2022/01/19 03:30:12;;;;;;;97.18;35.50;;;3.80;99.90;;;;;;5032900;28;20066;-80
2022/01/19 03:32:37;;;;;;;126.83;41.17;;;3.80;99.90;;;;;;5016529;28;20054;-81
2022/01/19 03:35:04;;;;;;;126.32;42.05;;;3.80;99.90;;;;;;5032961;28;20064;-80
2022/01/19 03:37:30;;;;;;;142.97;44.00;;;3.80;99.90;;;;;;5032934;28;20102;-81
2022/01/19 03:39:55;;;;;;;73.17;23.40;;;3.80;99.90;;;;;;5033167;28;20554;-80
2022/01/19 03:42:21;;;;;;;103.07;33.05;;;3.70;99.90;;;;;;5016703;28;20084;-80
2022/01/19 03:44:47;;;;;;;96.37;30.43;;;3.70;99.90;;;;;;5032736;28;20514;-81
2022/01/19 03:47:13;;;;;;;108.35;32.95;;;3.70;99.90;;;;;;5000262;28;20042;-80
2022/01/19 03:49:38;;;;;;;76.00;25.00;;;3.70;99.90;;;;;;5016558;28;20068;-80
2022/01/19 03:52:05;;;;;;;79.20;29.42;;;3.70;99.90;;;;;;5016507;28;20053;-80
2022/01/19 03:54:38;;;;;;;70.35;23.55;;;3.70;99.90;;;;;;5016150;28;20049;-80
2022/01/19 03:57:05;;;;;;;57.97;18.52;;;3.70;99.90;;;;;;5016766;28;20407;-80
2022/01/19 03:59:31;;;;;;;83.05;26.95;;;3.60;99.90;;;;;;5016239;28;20041;-80
2022/01/19 04:01:58;;;;;;;57.20;19.38;;;3.70;99.90;;;;;;5032855;28;20045;-80
2022/01/19 04:06:58;;;;;;;35.03;12.60;;;3.70;99.90;;;;;;5032594;28;20503;-81
2022/01/19 04:09:24;;;;;;;99.15;32.45;;;3.70;99.90;;;;;;5001040;28;20500;-80
2022/01/19 04:11:51;;;;;;;54.58;19.00;;;3.70;99.90;;;;;;5032552;28;20076;-81
2022/01/19 04:14:25;;;;;;;47.08;20.85;;;3.60;99.90;;;;;;5016210;28;20438;-80
2022/01/19 04:17:15;;;;;;;28.67;12.90;;;3.60;99.90;;;;;;5016287;28;20087;-80
2022/01/19 04:19:46;;;;;;;50.58;18.75;;;3.60;99.90;;;;;;5032222;28;20041;-80
2022/01/19 04:22:18;;;;;;;81.78;27.33;;;3.70;99.90;;;;;;5016660;28;20048;-80
2022/01/19 04:24:46;;;;;;;59.28;19.70;;;3.70;99.90;;;;;;5015698;28;20132;-80
2022/01/19 04:29:45;;;;;;;93.53;31.67;;;3.70;99.90;;;;;;5031511;28;20503;-81
2022/01/19 04:32:15;;;;;;;105.30;32.72;;;3.70;99.90;;;;;;5032121;28;20136;-80
2022/01/19 04:34:43;;;;;;;88.25;26.90;;;3.70;99.90;;;;;;5016288;28;20415;-80
2022/01/19 05:03:57;;;;;;;54.38;19.40;;;3.60;99.90;;;;;;5017565;28;20054;-80
2022/01/19 05:06:24;;;;;;;66.32;22.70;;;3.50;99.90;;;;;;5031779;28;20052;-81
2022/01/19 05:09:11;;;;;;;59.28;21.85;;;3.40;99.90;;;;;;5015408;28;20471;-80
2022/01/19 05:14:21;;;;;;;91.32;28.58;;;3.40;99.90;;;;;;5031551;28;20530;-80
2022/01/19 05:16:47;;;;;;;63.40;22.58;;;3.30;99.90;;;;;;5015433;28;20046;-80
2022/01/19 05:19:13;;;;;;;85.20;26.98;;;3.30;99.90;;;;;;5031397;28;20037;-80
2022/01/19 05:21:38;;;;;;;58.85;22.85;;;3.30;99.90;;;;;;5015106;28;20045;-80
2022/01/19 05:24:07;;;;;;;63.92;20.20;;;3.30;99.90;;;;;;5014938;28;20046;-80
2022/01/19 05:26:35;;;;;;;61.65;23.13;;;3.20;99.90;;;;;;5031421;28;20059;-80
2022/01/19 05:29:01;;;;;;;63.95;22.90;;;3.20;99.90;;;;;;5015081;28;20056;-80
2022/01/19 05:31:26;;;;;;;51.35;19.13;;;3.30;99.90;;;;;;5031418;28;20053;-81
2022/01/19 05:33:53;;;;;;;74.63;28.23;;;3.30;99.90;;;;;;5014986;28;20092;-81
2022/01/19 05:36:19;;;;;;;56.28;22.55;;;3.20;99.90;;;;;;4998871;28;20434;-80
2022/01/19 05:38:44;;;;;;;76.85;25.85;;;3.30;99.90;;;;;;4999058;28;20132;-80
2022/01/19 05:41:10;;;;;;;87.55;30.40;;;3.40;99.90;;;;;;5014892;28;20045;-81
2022/01/19 05:43:36;;;;;;;67.78;24.50;;;3.30;99.90;;;;;;5034348;28;20100;-81
2022/01/19 05:46:01;;;;;;;80.18;28.65;;;3.30;99.90;;;;;;5035176;28;20172;-80
2022/01/19 05:48:27;;;;;;;65.03;25.70;;;3.20;99.90;;;;;;5018835;28;20040;-81
2022/01/19 05:50:53;;;;;;;73.22;25.15;;;3.20;99.90;;;;;;5018554;28;20048;-81
2022/01/19 05:53:20;;;;;;;76.85;27.08;;;3.20;99.90;;;;;;5002430;28;20167;-80
2022/01/19 05:55:46;;;;;;;72.63;26.88;;;3.20;99.90;;;;;;5018353;28;20057;-80
2022/01/19 05:58:12;;;;;;;88.10;31.08;;;3.20;99.90;;;;;;5018713;28;20042;-80
2022/01/19 06:00:38;;;;;;;55.42;23.00;;;3.20;99.90;;;;;;5018279;28;20037;-80
2022/01/19 06:03:04;;;;;;;81.10;29.70;;;3.20;99.90;;;;;;5018402;28;20052;-80
2022/01/19 06:05:31;;;;;;;60.13;25.48;;;3.20;99.90;;;;;;5018162;28;20129;-80
2022/01/19 06:08:16;;;;;;;53.85;20.80;;;3.20;99.90;;;;;;5035049;28;20407;-81
2022/01/19 06:10:43;;;;;;;49.00;18.77;;;3.20;99.90;;;;;;5034626;28;20045;-80
2022/01/19 06:13:13;;;;;;;43.78;15.93;;;3.20;99.90;;;;;;5034657;28;20081;-80
2022/01/19 06:15:39;;;;;;;72.40;26.90;;;3.20;99.90;;;;;;5017997;28;20499;-80
2022/01/19 06:18:05;;;;;;;61.45;25.77;;;3.20;99.90;;;;;;5034726;28;20404;-80
2022/01/19 06:20:31;;;;;;;75.95;27.88;;;3.20;99.90;;;;;;5001540;28;20041;-81
2022/01/19 06:22:56;;;;;;;70.82;27.42;;;3.20;99.90;;;;;;5018241;28;20049;-81
2022/01/19 06:25:22;;;;;;;65.50;25.25;;;3.20;99.90;;;;;;5034281;28;20052;-80
2022/01/19 06:27:48;;;;;;;54.90;20.42;;;3.20;99.90;;;;;;5001592;28;20068;-80
2022/01/19 06:30:14;;;;;;;71.35;28.08;;;3.20;99.90;;;;;;5033878;28;20049;-81
2022/01/19 06:32:40;;;;;;;68.15;24.88;;;3.20;99.90;;;;;;5034380;28;20057;-81
2022/01/19 06:35:07;;;;;;;57.10;23.63;;;3.30;99.90;;;;;;5034045;28;20187;-81
2022/01/19 06:37:32;;;;;;;48.78;18.85;;;3.20;99.90;;;;;;5001357;28;20045;-81
2022/01/19 06:39:58;;;;;;;56.00;23.70;;;3.20;99.90;;;;;;5017894;28;20068;-81
2022/01/19 06:42:24;;;;;;;76.05;29.25;;;3.20;99.90;;;;;;5017472;28;20041;-80
2022/01/19 06:44:50;;;;;;;55.72;21.88;;;3.20;99.90;;;;;;5033890;28;20085;-81
2022/01/19 06:47:16;;;;;;;48.22;22.08;;;3.20;99.90;;;;;;5034206;28;20045;-81
2022/01/19 06:49:41;;;;;;;59.63;27.50;;;3.40;99.90;;;;;;5017409;28;20052;-80
2022/01/19 06:52:07;;;;;;;52.75;19.50;;;3.30;99.90;;;;;;5017687;28;20045;-80
2022/01/19 06:54:33;;;;;;;68.03;27.60;;;3.30;99.90;;;;;;5000582;28;20519;-82
2022/01/19 06:56:59;;;;;;;58.25;22.98;;;3.30;99.90;;;;;;5034296;28;20120;-81
2022/01/19 06:59:25;;;;;;;69.18;27.67;;;3.30;99.90;;;;;;5000905;28;20049;-80
2022/01/19 07:01:50;;;;;;;59.47;24.15;;;3.30;99.90;;;;;;5000852;28;20045;-80
2022/01/19 07:04:17;;;;;;;64.65;26.08;;;3.30;99.90;;;;;;5033856;28;20452;-80
2022/01/19 07:06:43;;;;;;;63.15;27.80;;;3.30;99.90;;;;;;5017506;28;20045;-80
2022/01/19 07:09:09;;;;;;;67.80;27.60;;;3.30;99.90;;;;;;5033749;28;20440;-80
2022/01/19 07:11:37;;;;;;;49.03;21.85;;;3.30;99.90;;;;;;5017591;28;20506;-81
2022/01/19 07:14:04;;;;;;;62.38;27.35;;;3.30;99.90;;;;;;5033610;28;20415;-81
2022/01/19 07:16:30;;;;;;;72.45;30.25;;;3.40;99.90;;;;;;5033572;28;20037;-81
2022/01/19 07:18:56;;;;;;;68.50;29.13;;;3.30;99.90;;;;;;5016979;28;20542;-81
2022/01/19 07:21:22;;;;;;;68.13;26.88;;;3.40;99.90;;;;;;5016872;28;20049;-79
2022/01/19 07:23:48;;;;;;;63.20;26.33;;;3.40;99.90;;;;;;5017034;28;20042;-80
2022/01/19 07:26:13;;;;;;;60.53;27.63;;;3.40;99.90;;;;;;5000594;28;20053;-80
2022/01/19 07:28:39;;;;;;;52.47;22.70;;;3.40;99.90;;;;;;5033209;28;20112;-80
2022/01/19 07:31:05;;;;;;;64.55;27.42;;;3.40;99.90;;;;;;5033404;28;20055;-80
2022/01/19 07:33:31;;;;;;;59.47;25.63;;;3.40;99.90;;;;;;5000520;28;20048;-80
2022/01/19 07:35:57;;;;;;;71.70;28.75;;;3.40;99.90;;;;;;5016508;28;20049;-80
2022/01/19 07:38:26;;;;;;;54.75;23.55;;;3.50;99.90;;;;;;5033272;28;20148;-81
2022/01/19 07:40:53;;;;;;;58.60;25.25;;;3.40;99.90;;;;;;5032991;28;20051;-81
2022/01/19 07:43:18;;;;;;;42.00;21.13;;;3.50;99.90;;;;;;4999993;28;20049;-80
2022/01/19 07:45:44;;;;;;;50.15;19.85;;;3.50;99.90;;;;;;5033156;28;20049;-80
2022/01/19 07:48:10;;;;;;;65.22;26.30;;;3.50;99.90;;;;;;5032833;28;20092;-80
2022/01/19 07:50:37;;;;;;;68.93;30.75;;;3.50;99.90;;;;;;5032571;28;20045;-80
2022/01/19 07:53:03;;;;;;;64.85;28.63;;;3.50;99.90;;;;;;5016535;28;20048;-80
2022/01/19 07:55:29;;;;;;;62.03;25.58;;;3.50;99.90;;;;;;5032619;28;20534;-81
2022/01/19 07:57:55;;;;;;;53.08;24.42;;;3.50;99.90;;;;;;5016086;28;20111;-80
2022/01/19 08:00:21;;;;;;;66.75;28.77;;;3.50;99.90;;;;;;5016016;28;20043;-80
2022/01/19 08:02:49;;;;;;;62.22;28.27;;;3.50;99.90;;;;;;5032387;28;20034;-80
2022/01/19 08:05:16;;;;;;;57.65;25.50;;;3.50;99.90;;;;;;5015012;28;20132;-80
2022/01/19 08:07:42;;;;;;;73.15;29.73;;;3.60;99.90;;;;;;5015880;28;20049;-81
2022/01/19 08:10:09;;;;;;;67.53;26.38;;;3.50;99.90;;;;;;5015824;28;20049;-81
2022/01/19 08:12:35;;;;;;;65.75;27.95;;;3.50;99.90;;;;;;5032388;28;20381;-80
2022/01/19 08:15:01;;;;;;;54.58;24.13;;;3.50;99.90;;;;;;5015601;28;20046;-80
2022/01/19 08:17:28;;;;;;;69.72;29.55;;;3.60;99.90;;;;;;5032138;28;20045;-81
2022/01/19 08:19:55;;;;;;;73.07;32.53;;;3.60;99.90;;;;;;5015548;28;20080;-80
2022/01/19 08:22:21;;;;;;;61.40;25.30;;;3.60;99.90;;;;;;5032063;28;20133;-80
2022/01/19 08:24:47;;;;;;;59.45;27.35;;;3.70;99.90;;;;;;5015740;28;20085;-81
2022/01/19 08:27:13;;;;;;;71.72;35.47;;;3.70;99.90;;;;;;5015758;28;20091;-81
2022/01/19 08:29:38;;;;;;;64.75;29.55;;;3.80;99.90;;;;;;5031633;28;20057;-80
2022/01/19 08:32:05;;;;;;;50.13;21.75;;;3.80;99.90;;;;;;5032358;28;20492;-81
2022/01/19 08:34:32;;;;;;;80.40;30.58;;;3.80;99.90;;;;;;5015217;28;20049;-81
2022/01/19 08:36:59;;;;;;;58.30;26.73;;;3.90;99.90;;;;;;5015539;28;20045;-81
2022/01/19 08:39:25;;;;;;;55.38;25.15;;;4.00;99.90;;;;;;5031901;28;20476;-80
2022/01/19 08:41:51;;;;;;;42.75;14.90;;;4.00;99.90;;;;;;5032117;28;20088;-81
2022/01/19 08:44:17;;;;;;;59.97;30.77;;;4.00;99.90;;;;;;5031882;28;20541;-81
2022/01/19 08:46:44;;;;;;;58.10;26.52;;;4.10;99.90;;;;;;5031899;28;20099;-81
2022/01/19 08:49:10;;;;;;;72.15;32.83;;;4.20;99.90;;;;;;4998901;28;20049;-81
2022/01/19 08:51:36;;;;;;;56.03;25.65;;;4.20;99.90;;;;;;5015372;28;20044;-80
2022/01/19 08:54:03;;;;;;;52.72;24.00;;;4.20;99.90;;;;;;5015041;28;20116;-80
2022/01/19 08:56:30;;;;;;;41.28;19.33;;;4.20;99.90;;;;;;5031650;28;20270;-80
2022/01/19 08:58:56;;;;;;;65.13;29.02;;;4.30;99.90;;;;;;5031793;28;20412;-81
2022/01/19 09:01:23;;;;;;;58.15;27.20;;;4.30;99.90;;;;;;5015180;28;20103;-81
2022/01/19 09:03:48;;;;;;;58.70;27.50;;;4.30;99.90;;;;;;4998975;28;20377;-80
2022/01/19 09:06:14;;;;;;;55.28;27.15;;;4.30;99.90;;;;;;4998819;28;20053;-81
2022/01/19 09:08:40;;;;;;;64.97;30.15;;;4.40;99.90;;;;;;5014837;28;20111;-81
2022/01/19 09:11:06;;;;;;;61.13;28.35;;;4.40;99.90;;;;;;5031277;28;20041;-80
2022/01/19 09:13:33;;;;;;;71.32;29.88;;;4.40;99.90;;;;;;5031574;28;20108;-81
2022/01/19 09:15:59;;;;;;;42.50;18.63;;;4.40;99.90;;;;;;5015528;28;20139;-80
2022/01/19 09:18:25;;;;;;;52.05;25.40;;;4.40;99.90;;;;;;5037922;28;20072;-80
2022/01/19 09:20:51;;;;;;;69.03;31.08;;;4.40;99.90;;;;;;5021545;28;20037;-80
2022/01/19 09:23:17;;;;;;;54.45;29.20;;;4.50;99.90;;;;;;5021656;28;20072;-81
2022/01/19 09:25:42;;;;;;;53.17;27.65;;;4.40;99.90;;;;;;5005279;28;20052;-80
2022/01/19 09:28:08;;;;;;;64.82;26.33;;;4.40;99.90;;;;;;5005335;28;20068;-80
2022/01/19 09:30:36;;;;;;;54.58;26.08;;;4.30;99.90;;;;;;5020883;28;20137;-81
2022/01/19 09:33:10;;;;;;;55.13;24.65;;;4.40;99.90;;;;;;5021956;28;20077;-81
2022/01/19 09:38:36;;;;;;;50.10;24.25;;;4.40;99.90;;;;;;5038237;28;20049;-80
2022/01/19 09:41:03;;;;;;;41.38;17.27;;;4.40;99.90;;;;;;5021689;28;20471;-81
2022/01/19 09:43:29;;;;;;;40.47;17.15;;;4.40;99.90;;;;;;5037899;28;20132;-81
2022/01/19 09:45:58;;;;;;;61.35;27.23;;;4.40;99.90;;;;;;5037619;28;20496;-81
2022/01/19 09:48:24;;;;;;;63.00;29.58;;;4.50;99.90;;;;;;5021507;28;20045;-80
2022/01/19 09:50:51;;;;;;;43.25;20.02;;;4.50;99.90;;;;;;5004778;28;20054;-80
2022/01/19 09:53:17;;;;;;;45.83;23.10;;;4.50;99.90;;;;;;5037559;28;20065;-80
2022/01/19 09:55:46;;;;;;;62.05;28.40;;;4.50;99.90;;;;;;5037528;28;20093;-80
2022/01/19 09:58:12;;;;;;;30.67;15.35;;;4.50;99.90;;;;;;5037876;28;20083;-81
2022/01/19 10:00:38;;;;;;;27.75;14.93;;;4.50;99.90;;;;;;5021089;28;20088;-80
2022/01/19 10:03:27;;;;;;;44.47;22.13;;;4.50;99.90;;;;;;5021029;28;20507;-81
2022/01/19 10:05:58;;;;;;;46.90;18.77;;;4.50;99.90;;;;;;5021123;28;20045;-80
2022/01/19 10:08:37;;;;;;;45.55;21.88;;;4.50;99.90;;;;;;5021257;28;20522;-80
2022/01/19 10:11:06;;;;;;;54.03;26.40;;;4.50;99.90;;;;;;5037713;28;20049;-81
2022/01/19 10:19:15;;;;;;;39.00;18.10;;;4.50;99.90;;;;;;5037326;28;20045;-81
2022/01/19 10:22:09;;;;;;;74.72;35.30;;;4.50;99.90;;;;;;5037368;28;20042;-80
2022/01/19 10:24:41;;;;;;;54.78;21.70;;;4.40;99.90;;;;;;5037493;28;20400;-80
2022/01/19 10:27:39;;;;;;;49.83;24.20;;;4.50;99.90;;;;;;5021243;28;20111;-81
2022/01/19 10:30:05;;;;;;;43.15;19.35;;;4.40;99.90;;;;;;5017267;28;20518;-81
2022/01/19 10:32:50;;;;;;;43.63;20.50;;;4.50;99.90;;;;;;5033771;28;20058;-80
2022/01/19 10:35:29;;;;;;;53.63;24.63;;;4.50;99.90;;;;;;5016145;28;20389;-81
2022/01/19 10:38:15;;;;;;;48.20;23.10;;;4.50;99.90;;;;;;5035092;28;20056;-80
2022/01/19 10:40:55;;;;;;;53.45;23.40;;;4.60;99.90;;;;;;5032205;28;20411;-81
2022/01/19 10:43:28;;;;;;;46.15;21.67;;;4.60;99.90;;;;;;5033086;28;20073;-82
2022/01/19 10:45:55;;;;;;;43.28;19.40;;;4.60;99.90;;;;;;5016808;28;20162;-80
2022/01/19 10:48:33;;;;;;;33.97;16.13;;;4.60;99.90;;;;;;5016712;28;20341;-80
2022/01/19 10:51:17;;;;;;;36.60;17.85;;;4.60;99.90;;;;;;5033245;28;20396;-82
2022/01/19 10:54:10;;;;;;;45.88;22.88;;;4.70;99.90;;;;;;5030429;28;20049;-81
2022/01/19 10:56:37;;;;;;;31.33;16.52;;;4.70;99.90;;;;;;5029241;28;20077;-82
2022/01/19 10:59:10;;;;;;;40.80;21.58;;;4.70;99.90;;;;;;5014408;28;20048;-81
2022/01/19 11:01:41;;;;;;;56.42;26.02;;;4.70;99.90;;;;;;5016367;28;20046;-80
2022/01/19 11:04:40;;;;;;;66.50;32.50;;;4.80;99.90;;;;;;5020967;28;20481;-80
2022/01/19 11:07:11;;;;;;;36.47;20.40;;;4.80;99.90;;;;;;5009049;28;20140;-80
2022/01/19 11:09:57;;;;;;;44.33;21.52;;;4.80;99.90;;;;;;5030484;28;20376;-81
2022/01/19 11:12:28;;;;;;;57.55;26.73;;;4.90;99.90;;;;;;5015613;28;20496;-81
2022/01/19 11:14:54;;;;;;;43.47;19.58;;;4.90;99.90;;;;;;5000626;28;20057;-81
2022/01/19 11:17:20;;;;;;;52.63;24.33;;;4.90;99.90;;;;;;5017324;28;20068;-80
2022/01/19 11:19:46;;;;;;;40.42;20.00;;;4.90;99.90;;;;;;5000336;28;20041;-80
2022/01/19 11:22:36;;;;;;;48.63;24.20;;;4.90;99.90;;;;;;5033367;28;20045;-81
2022/01/19 11:25:22;;;;;;;67.60;32.25;;;4.90;99.90;;;;;;5016634;28;20042;-80
2022/01/19 11:27:49;;;;;;;48.30;21.02;;;5.00;99.90;;;;;;5033505;28;20507;-80
2022/01/19 11:30:31;;;;;;;40.10;19.50;;;5.10;99.90;;;;;;4999824;28;20063;-82
2022/01/19 11:33:16;;;;;;;53.65;24.15;;;5.10;99.90;;;;;;5033105;28;20045;-81
2022/01/19 11:35:47;;;;;;;44.38;22.58;;;5.20;99.90;;;;;;5032965;28;20156;-81
2022/01/19 11:38:34;;;;;;;50.83;22.50;;;5.20;99.90;;;;;;5033207;28;20041;-81
2022/01/19 11:41:08;;;;;;;43.13;19.63;;;5.30;99.90;;;;;;5015314;28;20057;-81
2022/01/19 11:43:35;;;;;;;30.30;17.23;;;5.30;99.90;;;;;;5016196;28;20037;-80
2022/01/19 11:46:03;;;;;;;32.17;16.83;;;5.30;99.90;;;;;;5032019;28;20412;-81
2022/01/19 11:48:34;;;;;;;39.53;17.25;;;5.20;99.90;;;;;;5015965;28;20038;-81
2022/01/19 11:51:25;;;;;;;51.30;26.33;;;5.50;99.90;;;;;;5015661;28;20048;-80
2022/01/19 11:54:13;;;;;;;49.67;24.70;;;5.30;99.90;;;;;;5031240;28;20045;-80
2022/01/19 11:57:11;;;;;;;57.13;28.83;;;5.30;99.90;;;;;;5031732;28;20052;-81
2022/01/19 11:59:50;;;;;;;49.28;24.73;;;5.30;99.90;;;;;;5031871;28;20430;-80
2022/01/19 12:02:24;;;;;;;27.30;14.73;;;5.30;99.90;;;;;;5012784;28;20045;-80
2022/01/19 12:04:54;;;;;;;45.13;23.10;;;5.30;99.90;;;;;;5015264;28;20149;-80
2022/01/19 12:07:43;;;;;;;35.97;20.85;;;5.30;99.90;;;;;;5015183;28;20049;-81
2022/01/19 12:10:20;;;;;;;28.58;15.15;;;5.30;99.90;;;;;;5010854;28;20400;-80
2022/01/19 12:16:15;;;;;;;31.30;12.90;;;5.50;99.90;;;;;;5032096;28;20053;-80
2022/01/19 12:18:51;;;;;;;29.60;14.25;;;5.50;99.90;;;;;;5014696;28;20124;-82
2022/01/19 12:21:20;;;;;;;29.05;12.88;;;5.50;99.90;;;;;;5031541;28;20041;-82
2022/01/19 12:23:46;;;;;;;22.52;10.85;;;5.50;99.90;;;;;;5014264;28;20052;-80
2022/01/19 12:26:12;;;;;;;17.30;10.95;;;5.50;99.90;;;;;;4999283;28;20400;-80
2022/01/19 12:28:49;;;;;;;33.10;13.23;;;5.60;99.90;;;;;;5032786;28;20044;-82
2022/01/19 12:31:24;;;;;;;31.27;13.07;;;5.60;99.90;;;;;;5031665;28;20041;-80
2022/01/19 12:34:02;;;;;;;20.35;10.52;;;5.60;99.90;;;;;;5030210;28;20432;-79
2022/01/19 12:36:47;;;;;;;39.83;17.10;;;5.60;99.90;;;;;;5013894;28;20050;-81
2022/01/19 12:39:25;;;;;;;29.63;12.43;;;5.60;99.90;;;;;;5015473;28;20049;-80
2022/01/19 12:41:59;;;;;;;29.45;14.07;;;5.70;99.90;;;;;;5015862;28;20049;-82
2022/01/19 12:44:40;;;;;;;30.38;14.00;;;5.60;99.90;;;;;;5015210;28;20045;-82
2022/01/19 12:47:28;;;;;;;31.80;11.98;;;5.70;99.90;;;;;;4999207;28;20079;-81
2022/01/19 12:50:08;;;;;;;28.20;12.23;;;5.80;99.90;;;;;;5015152;28;20131;-81
2022/01/19 12:52:39;;;;;;;32.55;13.80;;;5.80;99.90;;;;;;5031455;28;20063;-80
2022/01/19 12:55:15;;;;;;;24.52;11.90;;;5.90;99.90;;;;;;5031585;28;20067;-81
2022/01/19 12:57:41;;;;;;;27.35;13.93;;;5.90;99.90;;;;;;5031490;28;20050;-82
2022/01/19 13:00:13;;;;;;;20.35;12.40;;;5.90;99.90;;;;;;5031831;28;20514;-81
2022/01/19 13:02:39;;;;;;;23.00;12.65;;;5.80;99.90;;;;;;5015038;28;20049;-80
2022/01/19 13:05:08;;;;;;;23.13;11.80;;;5.80;99.90;;;;;;5031441;28;20044;-81
2022/01/19 13:07:37;;;;;;;27.33;14.18;;;5.80;99.90;;;;;;5015100;28;20049;-80
2022/01/19 13:13:23;;;;;;;29.98;13.38;;;5.70;99.90;;;;;;4991642;28;20507;-81
2022/01/19 13:16:01;;;;;;;27.60;11.50;;;5.80;99.90;;;;;;5031483;28;20085;-80
2022/01/19 13:18:37;;;;;;;26.90;13.32;;;5.70;99.90;;;;;;5031406;28;20228;-80
2022/01/19 13:21:10;;;;;;;22.55;10.13;;;5.70;99.90;;;;;;5031351;28;20045;-81
2022/01/19 13:24:31;;;;;;;24.92;10.82;;;5.70;99.90;;;;;;5031261;28;20052;-81
2022/01/19 13:27:00;;;;;;;26.85;10.90;;;5.70;99.90;;;;;;5046162;28;20131;-81
2022/01/19 13:29:33;;;;;;;25.00;10.85;;;5.70;99.90;;;;;;5031320;28;20571;-80
2022/01/19 13:32:06;;;;;;;22.48;10.05;;;5.70;99.90;;;;;;5015085;28;20049;-80
2022/01/19 13:34:49;;;;;;;25.60;11.23;;;5.70;99.90;;;;;;5031230;28;20049;-81
2022/01/19 13:37:15;;;;;;;23.20;9.80;;;5.70;99.90;;;;;;5014785;28;20141;-81
2022/01/19 13:39:41;;;;;;;18.35;8.13;;;5.60;99.90;;;;;;5031020;28;20053;-80
2022/01/19 13:42:07;;;;;;;22.58;10.50;;;5.40;99.90;;;;;;5030179;28;20037;-82
2022/01/19 13:44:44;;;;;;;18.35;9.85;;;5.20;99.90;;;;;;5013236;28;20038;-80
2022/01/19 13:47:15;;;;;;;16.83;9.30;;;5.10;99.90;;;;;;5031213;28;20404;-81
2022/01/19 13:49:51;;;;;;;22.58;9.98;;;5.20;99.90;;;;;;5014361;28;20048;-81
2022/01/19 13:52:23;;;;;;;24.63;12.07;;;5.00;99.90;;;;;;5030649;28;20072;-81
2022/01/19 13:54:49;;;;;;;25.55;10.85;;;4.90;99.90;;;;;;5014247;28;20053;-82
2022/01/19 13:57:26;;;;;;;20.10;8.05;;;4.90;99.90;;;;;;5030350;28;20100;-80
2022/01/19 13:59:52;;;;;;;23.25;11.52;;;4.90;99.90;;;;;;5013941;28;20046;-81
2022/01/19 14:02:20;;;;;;;32.55;15.40;;;4.80;99.90;;;;;;5030522;28;20056;-81
2022/01/19 14:04:54;;;;;;;38.42;14.50;;;4.80;99.90;;;;;;5017456;28;20514;-81
2022/01/19 14:07:20;;;;;;;21.98;10.90;;;4.80;99.90;;;;;;5033974;28;20053;-80
2022/01/19 14:09:47;;;;;;;25.70;10.18;;;4.80;99.90;;;;;;5033933;28;20116;-82
2022/01/19 14:12:16;;;;;;;20.02;9.63;;;4.90;99.90;;;;;;5000927;28;20408;-81
2022/01/19 14:14:48;;;;;;;27.77;10.80;;;4.70;99.90;;;;;;5034598;28;20500;-81
2022/01/19 14:17:34;;;;;;;28.15;10.38;;;4.70;99.90;;;;;;5033817;28;20091;-80
2022/01/19 14:20:01;;;;;;;25.23;10.38;;;4.70;99.90;;;;;;5033561;28;20049;-81
2022/01/19 14:22:32;;;;;;;21.63;8.48;;;4.70;99.90;;;;;;5016402;28;20037;-81
2022/01/19 14:25:04;;;;;;;17.83;8.02;;;4.80;99.90;;;;;;5017437;28;20049;-80
2022/01/19 14:27:32;;;;;;;34.25;13.65;;;4.80;99.90;;;;;;5017264;28;20049;-80